sensor_id;sensor_type;location;lat;lon;timestamp;P1;durP1;ratioP1;P2;durP2;ratioP2
40176;SDS011;31511;46.176;9.874;2022-09-09T00:00:26;3.42;;;1.17;;
40176;SDS011;31511;46.176;9.874;2022-09-09T00:03:02;5.70;;;1.33;;
40176;SDS011;31511;46.176;9.874;2022-09-09T00:05:37;5.72;;;1.17;;
40176;SDS011;31511;46.176;9.874;2022-09-09T00:08:06;4.55;;;1.25;;
40176;SDS011;31511;46.176;9.874;2022-09-09T00:10:39;3.97;;;0.95;;
40176;SDS011;31511;46.176;9.874;2022-09-09T00:23:24;2.70;;;1.23;;
40176;SDS011;31511;46.176;9.874;2022-09-09T00:28:24;2.80;;;1.58;;
40176;SDS011;31511;46.176;9.874;2022-09-09T00:30:59;5.10;;;1.38;;
40176;SDS011;31511;46.176;9.874;2022-09-09T00:33:27;3.00;;;1.35;;
40176;SDS011;31511;46.176;9.874;2022-09-09T00:35:57;3.92;;;1.48;;
40176;SDS011;31511;46.176;9.874;2022-09-09T00:38:33;5.00;;;1.55;;
40176;SDS011;31511;46.176;9.874;2022-09-09T00:43:38;3.78;;;1.65;;
40176;SDS011;31511;46.176;9.874;2022-09-09T00:54:28;5.35;;;1.30;;
40176;SDS011;31511;46.176;9.874;2022-09-09T00:59:46;2.67;;;1.17;;
40176;SDS011;31511;46.176;9.874;2022-09-09T01:02:16;2.55;;;1.00;;
40176;SDS011;31511;46.176;9.874;2022-09-09T01:04:43;2.28;;;1.02;;
40176;SDS011;31511;46.176;9.874;2022-09-09T01:07:16;4.05;;;1.52;;
40176;SDS011;31511;46.176;9.874;2022-09-09T01:12:28;6.80;;;1.27;;
40176;SDS011;31511;46.176;9.874;2022-09-09T01:15:07;3.90;;;1.15;;
40176;SDS011;31511;46.176;9.874;2022-09-09T01:17:44;2.90;;;1.10;;
40176;SDS011;31511;46.176;9.874;2022-09-09T01:23:04;6.30;;;1.38;;
40176;SDS011;31511;46.176;9.874;2022-09-09T01:28:22;3.45;;;1.20;;
40176;SDS011;31511;46.176;9.874;2022-09-09T01:30:53;4.15;;;1.10;;
40176;SDS011;31511;46.176;9.874;2022-09-09T01:33:22;3.47;;;1.25;;
40176;SDS011;31511;46.176;9.874;2022-09-09T01:35:51;5.25;;;1.17;;
40176;SDS011;31511;46.176;9.874;2022-09-09T01:38:21;5.18;;;1.35;;
40176;SDS011;31511;46.176;9.874;2022-09-09T01:40:51;5.75;;;1.27;;
40176;SDS011;31511;46.176;9.874;2022-09-09T01:43:18;3.67;;;1.10;;
40176;SDS011;31511;46.176;9.874;2022-09-09T01:45:44;6.50;;;1.73;;
40176;SDS011;31511;46.176;9.874;2022-09-09T01:48:12;4.20;;;1.50;;
40176;SDS011;31511;46.176;9.874;2022-09-09T01:50:39;5.47;;;1.10;;
40176;SDS011;31511;46.176;9.874;2022-09-09T01:53:06;3.38;;;1.40;;
40176;SDS011;31511;46.176;9.874;2022-09-09T01:55:39;3.60;;;1.20;;
40176;SDS011;31511;46.176;9.874;2022-09-09T02:00:32;8.52;;;2.15;;
40176;SDS011;31511;46.176;9.874;2022-09-09T02:03:05;2.33;;;1.35;;
40176;SDS011;31511;46.176;9.874;2022-09-09T02:08:15;4.38;;;1.30;;
40176;SDS011;31511;46.176;9.874;2022-09-09T02:13:13;3.28;;;1.50;;
40176;SDS011;31511;46.176;9.874;2022-09-09T02:15:57;11.02;;;1.33;;
40176;SDS011;31511;46.176;9.874;2022-09-09T02:18:30;2.55;;;1.80;;
40176;SDS011;31511;46.176;9.874;2022-09-09T02:20:57;6.65;;;2.05;;
40176;SDS011;31511;46.176;9.874;2022-09-09T02:23:26;1.90;;;1.45;;
40176;SDS011;31511;46.176;9.874;2022-09-09T02:25:55;4.45;;;1.35;;
40176;SDS011;31511;46.176;9.874;2022-09-09T02:28:25;5.35;;;1.42;;
40176;SDS011;31511;46.176;9.874;2022-09-09T02:30:55;7.82;;;1.65;;
40176;SDS011;31511;46.176;9.874;2022-09-09T02:33:28;2.97;;;1.30;;
40176;SDS011;31511;46.176;9.874;2022-09-09T02:35:56;5.80;;;2.03;;
40176;SDS011;31511;46.176;9.874;2022-09-09T02:38:32;4.53;;;1.60;;
40176;SDS011;31511;46.176;9.874;2022-09-09T02:41:00;5.20;;;1.80;;
40176;SDS011;31511;46.176;9.874;2022-09-09T02:43:31;7.82;;;1.90;;
40176;SDS011;31511;46.176;9.874;2022-09-09T02:46:02;4.70;;;1.55;;
40176;SDS011;31511;46.176;9.874;2022-09-09T02:48:34;6.70;;;1.70;;
40176;SDS011;31511;46.176;9.874;2022-09-09T02:51:16;2.75;;;1.60;;
40176;SDS011;31511;46.176;9.874;2022-09-09T02:53:48;2.00;;;1.10;;
40176;SDS011;31511;46.176;9.874;2022-09-09T02:56:17;5.93;;;2.47;;
40176;SDS011;31511;46.176;9.874;2022-09-09T02:58:46;4.40;;;1.38;;
40176;SDS011;31511;46.176;9.874;2022-09-09T03:01:12;3.20;;;1.40;;
40176;SDS011;31511;46.176;9.874;2022-09-09T03:03:38;3.25;;;1.40;;
40176;SDS011;31511;46.176;9.874;2022-09-09T03:06:06;5.72;;;1.50;;
40176;SDS011;31511;46.176;9.874;2022-09-09T03:08:33;2.67;;;1.35;;
40176;SDS011;31511;46.176;9.874;2022-09-09T03:10:59;4.68;;;1.83;;
40176;SDS011;31511;46.176;9.874;2022-09-09T03:13:29;3.55;;;1.48;;
40176;SDS011;31511;46.176;9.874;2022-09-09T03:15:55;3.38;;;1.60;;
40176;SDS011;31511;46.176;9.874;2022-09-09T03:18:23;4.18;;;1.80;;
40176;SDS011;31511;46.176;9.874;2022-09-09T03:20:51;6.95;;;1.60;;
40176;SDS011;31511;46.176;9.874;2022-09-09T03:23:19;5.20;;;1.50;;
40176;SDS011;31511;46.176;9.874;2022-09-09T03:25:47;3.58;;;1.70;;
40176;SDS011;31511;46.176;9.874;2022-09-09T03:28:14;5.15;;;1.40;;
40176;SDS011;31511;46.176;9.874;2022-09-09T03:30:41;3.55;;;1.75;;
40176;SDS011;31511;46.176;9.874;2022-09-09T03:33:07;3.45;;;1.75;;
40176;SDS011;31511;46.176;9.874;2022-09-09T03:35:34;9.63;;;1.90;;
40176;SDS011;31511;46.176;9.874;2022-09-09T03:38:01;3.83;;;1.77;;
40176;SDS011;31511;46.176;9.874;2022-09-09T03:40:28;4.47;;;2.40;;
40176;SDS011;31511;46.176;9.874;2022-09-09T03:42:56;4.32;;;1.65;;
40176;SDS011;31511;46.176;9.874;2022-09-09T03:45:24;5.65;;;2.05;;
40176;SDS011;31511;46.176;9.874;2022-09-09T03:47:52;8.60;;;2.78;;
40176;SDS011;31511;46.176;9.874;2022-09-09T03:50:20;3.58;;;1.95;;
40176;SDS011;31511;46.176;9.874;2022-09-09T03:52:49;4.68;;;2.40;;
40176;SDS011;31511;46.176;9.874;2022-09-09T03:55:15;12.52;;;3.47;;
40176;SDS011;31511;46.176;9.874;2022-09-09T03:57:43;5.97;;;2.55;;
40176;SDS011;31511;46.176;9.874;2022-09-09T04:00:09;8.60;;;3.03;;
40176;SDS011;31511;46.176;9.874;2022-09-09T04:02:35;3.72;;;2.50;;
40176;SDS011;31511;46.176;9.874;2022-09-09T04:05:01;8.88;;;3.03;;
40176;SDS011;31511;46.176;9.874;2022-09-09T04:07:29;4.32;;;2.50;;
40176;SDS011;31511;46.176;9.874;2022-09-09T04:09:55;5.18;;;2.08;;
40176;SDS011;31511;46.176;9.874;2022-09-09T04:12:23;3.78;;;2.00;;
40176;SDS011;31511;46.176;9.874;2022-09-09T04:14:52;3.80;;;1.77;;
40176;SDS011;31511;46.176;9.874;2022-09-09T04:17:18;6.63;;;2.10;;
40176;SDS011;31511;46.176;9.874;2022-09-09T04:19:46;5.70;;;2.22;;
40176;SDS011;31511;46.176;9.874;2022-09-09T04:22:13;5.32;;;2.20;;
40176;SDS011;31511;46.176;9.874;2022-09-09T04:24:41;15.20;;;2.70;;
40176;SDS011;31511;46.176;9.874;2022-09-09T04:27:07;3.47;;;2.33;;
40176;SDS011;31511;46.176;9.874;2022-09-09T04:29:33;3.70;;;1.90;;
40176;SDS011;31511;46.176;9.874;2022-09-09T04:32:00;3.53;;;1.50;;
40176;SDS011;31511;46.176;9.874;2022-09-09T04:34:28;8.55;;;1.83;;
40176;SDS011;31511;46.176;9.874;2022-09-09T04:36:56;3.78;;;2.30;;
40176;SDS011;31511;46.176;9.874;2022-09-09T04:39:23;8.15;;;2.75;;
40176;SDS011;31511;46.176;9.874;2022-09-09T04:41:52;6.97;;;2.60;;
40176;SDS011;31511;46.176;9.874;2022-09-09T04:44:18;4.78;;;2.05;;
40176;SDS011;31511;46.176;9.874;2022-09-09T04:46:46;10.35;;;2.78;;
40176;SDS011;31511;46.176;9.874;2022-09-09T04:49:12;11.32;;;2.83;;
40176;SDS011;31511;46.176;9.874;2022-09-09T04:51:39;4.55;;;1.90;;
40176;SDS011;31511;46.176;9.874;2022-09-09T04:54:05;1.80;;;1.00;;
40176;SDS011;31511;46.176;9.874;2022-09-09T04:56:32;4.05;;;1.80;;
40176;SDS011;31511;46.176;9.874;2022-09-09T04:58:58;4.40;;;1.90;;
40176;SDS011;31511;46.176;9.874;2022-09-09T05:01:26;4.05;;;1.95;;
40176;SDS011;31511;46.176;9.874;2022-09-09T05:03:55;4.28;;;1.90;;
40176;SDS011;31511;46.176;9.874;2022-09-09T05:06:22;7.57;;;2.72;;
40176;SDS011;31511;46.176;9.874;2022-09-09T05:08:51;2.47;;;1.67;;
40176;SDS011;31511;46.176;9.874;2022-09-09T05:13:44;3.90;;;2.20;;
40176;SDS011;31511;46.176;9.874;2022-09-09T05:16:10;8.10;;;3.53;;
40176;SDS011;31511;46.176;9.874;2022-09-09T05:18:38;4.38;;;2.60;;
40176;SDS011;31511;46.176;9.874;2022-09-09T05:21:04;4.15;;;2.00;;
40176;SDS011;31511;46.176;9.874;2022-09-09T05:23:32;5.22;;;2.08;;
40176;SDS011;31511;46.176;9.874;2022-09-09T05:25:59;3.40;;;1.85;;
40176;SDS011;31511;46.176;9.874;2022-09-09T05:28:27;5.68;;;2.33;;
40176;SDS011;31511;46.176;9.874;2022-09-09T05:30:56;4.15;;;2.53;;
40176;SDS011;31511;46.176;9.874;2022-09-09T05:33:24;6.05;;;2.88;;
40176;SDS011;31511;46.176;9.874;2022-09-09T05:35:56;2.05;;;1.75;;
40176;SDS011;31511;46.176;9.874;2022-09-09T05:38:24;3.90;;;2.25;;
40176;SDS011;31511;46.176;9.874;2022-09-09T05:40:53;3.42;;;1.20;;
40176;SDS011;31511;46.176;9.874;2022-09-09T05:43:20;4.95;;;1.35;;
40176;SDS011;31511;46.176;9.874;2022-09-09T05:45:58;8.85;;;1.63;;
40176;SDS011;31511;46.176;9.874;2022-09-09T05:48:32;2.17;;;1.25;;
40176;SDS011;31511;46.176;9.874;2022-09-09T05:50:59;3.25;;;1.25;;
40176;SDS011;31511;46.176;9.874;2022-09-09T05:53:27;3.05;;;1.73;;
40176;SDS011;31511;46.176;9.874;2022-09-09T05:55:58;5.43;;;2.17;;
40176;SDS011;31511;46.176;9.874;2022-09-09T05:58:26;3.70;;;2.20;;
40176;SDS011;31511;46.176;9.874;2022-09-09T06:00:59;2.78;;;1.80;;
40176;SDS011;31511;46.176;9.874;2022-09-09T06:03:26;3.50;;;2.15;;
40176;SDS011;31511;46.176;9.874;2022-09-09T06:06:02;4.60;;;2.20;;
40176;SDS011;31511;46.176;9.874;2022-09-09T06:08:31;3.35;;;2.03;;
40176;SDS011;31511;46.176;9.874;2022-09-09T06:11:01;3.65;;;2.17;;
40176;SDS011;31511;46.176;9.874;2022-09-09T06:13:28;4.00;;;1.98;;
40176;SDS011;31511;46.176;9.874;2022-09-09T06:15:54;2.30;;;1.80;;
40176;SDS011;31511;46.176;9.874;2022-09-09T06:18:21;2.30;;;1.80;;
40176;SDS011;31511;46.176;9.874;2022-09-09T06:20:53;2.67;;;1.92;;
40176;SDS011;31511;46.176;9.874;2022-09-09T06:23:21;2.22;;;1.80;;
40176;SDS011;31511;46.176;9.874;2022-09-09T06:25:49;2.50;;;1.63;;
40176;SDS011;31511;46.176;9.874;2022-09-09T06:28:16;2.58;;;1.65;;
40176;SDS011;31511;46.176;9.874;2022-09-09T06:30:44;2.08;;;1.60;;
40176;SDS011;31511;46.176;9.874;2022-09-09T06:33:11;1.30;;;1.20;;
40176;SDS011;31511;46.176;9.874;2022-09-09T06:35:38;1.80;;;1.63;;
40176;SDS011;31511;46.176;9.874;2022-09-09T06:38:07;3.42;;;1.90;;
40176;SDS011;31511;46.176;9.874;2022-09-09T06:40:34;1.33;;;0.90;;
40176;SDS011;31511;46.176;9.874;2022-09-09T06:43:00;4.28;;;1.40;;
40176;SDS011;31511;46.176;9.874;2022-09-09T06:45:27;2.42;;;1.15;;
40176;SDS011;31511;46.176;9.874;2022-09-09T06:47:54;2.65;;;1.33;;
40176;SDS011;31511;46.176;9.874;2022-09-09T06:50:23;4.65;;;1.67;;
40176;SDS011;31511;46.176;9.874;2022-09-09T06:52:51;2.67;;;1.45;;
40176;SDS011;31511;46.176;9.874;2022-09-09T06:55:17;2.35;;;1.23;;
40176;SDS011;31511;46.176;9.874;2022-09-09T06:57:46;4.07;;;1.58;;
40176;SDS011;31511;46.176;9.874;2022-09-09T07:00:13;2.53;;;1.50;;
40176;SDS011;31511;46.176;9.874;2022-09-09T07:02:39;2.10;;;1.13;;
40176;SDS011;31511;46.176;9.874;2022-09-09T07:05:06;2.63;;;1.20;;
40176;SDS011;31511;46.176;9.874;2022-09-09T07:07:34;3.45;;;1.10;;
40176;SDS011;31511;46.176;9.874;2022-09-09T07:10:03;1.42;;;1.30;;
40176;SDS011;31511;46.176;9.874;2022-09-09T07:12:30;4.55;;;1.10;;
40176;SDS011;31511;46.176;9.874;2022-09-09T07:14:57;1.15;;;0.73;;
40176;SDS011;31511;46.176;9.874;2022-09-09T07:17:24;3.22;;;1.02;;
40176;SDS011;31511;46.176;9.874;2022-09-09T07:19:54;1.30;;;0.80;;
40176;SDS011;31511;46.176;9.874;2022-09-09T07:22:21;1.20;;;0.57;;
40176;SDS011;31511;46.176;9.874;2022-09-09T07:24:50;1.63;;;0.85;;
40176;SDS011;31511;46.176;9.874;2022-09-09T07:27:16;1.83;;;1.20;;
40176;SDS011;31511;46.176;9.874;2022-09-09T07:29:43;0.70;;;0.70;;
40176;SDS011;31511;46.176;9.874;2022-09-09T07:32:10;1.00;;;0.85;;
40176;SDS011;31511;46.176;9.874;2022-09-09T07:34:36;1.40;;;0.73;;
40176;SDS011;31511;46.176;9.874;2022-09-09T07:37:02;1.42;;;1.33;;
40176;SDS011;31511;46.176;9.874;2022-09-09T07:39:30;1.35;;;1.10;;
40176;SDS011;31511;46.176;9.874;2022-09-09T07:41:58;3.67;;;1.70;;
40176;SDS011;31511;46.176;9.874;2022-09-09T07:44:25;1.60;;;1.10;;
40176;SDS011;31511;46.176;9.874;2022-09-09T07:46:52;1.90;;;1.13;;
40176;SDS011;31511;46.176;9.874;2022-09-09T07:49:19;1.73;;;1.02;;
40176;SDS011;31511;46.176;9.874;2022-09-09T07:51:48;1.08;;;0.80;;
40176;SDS011;31511;46.176;9.874;2022-09-09T07:54:15;2.58;;;0.70;;
40176;SDS011;31511;46.176;9.874;2022-09-09T07:56:45;5.20;;;0.55;;
40176;SDS011;31511;46.176;9.874;2022-09-09T07:59:12;0.50;;;0.30;;
40176;SDS011;31511;46.176;9.874;2022-09-09T08:01:40;0.82;;;0.60;;
40176;SDS011;31511;46.176;9.874;2022-09-09T08:04:09;2.35;;;0.82;;
40176;SDS011;31511;46.176;9.874;2022-09-09T08:06:39;1.70;;;0.77;;
40176;SDS011;31511;46.176;9.874;2022-09-09T08:09:06;2.60;;;0.43;;
40176;SDS011;31511;46.176;9.874;2022-09-09T08:11:33;1.92;;;0.70;;
40176;SDS011;31511;46.176;9.874;2022-09-09T08:14:00;1.35;;;0.80;;
40176;SDS011;31511;46.176;9.874;2022-09-09T08:16:29;0.95;;;0.63;;
40176;SDS011;31511;46.176;9.874;2022-09-09T08:18:58;0.82;;;0.47;;
40176;SDS011;31511;46.176;9.874;2022-09-09T08:21:27;3.60;;;0.80;;
40176;SDS011;31511;46.176;9.874;2022-09-09T08:23:54;1.58;;;0.57;;
40176;SDS011;31511;46.176;9.874;2022-09-09T08:26:23;1.23;;;0.43;;
40176;SDS011;31511;46.176;9.874;2022-09-09T08:28:53;0.70;;;0.50;;
40176;SDS011;31511;46.176;9.874;2022-09-09T08:31:22;1.38;;;0.82;;
40176;SDS011;31511;46.176;9.874;2022-09-09T08:33:51;1.45;;;0.57;;
40176;SDS011;31511;46.176;9.874;2022-09-09T08:36:18;0.57;;;0.45;;
40176;SDS011;31511;46.176;9.874;2022-09-09T08:38:47;1.00;;;0.55;;
40176;SDS011;31511;46.176;9.874;2022-09-09T08:49:15;1.08;;;0.68;;
40176;SDS011;31511;46.176;9.874;2022-09-09T08:51:46;3.08;;;0.68;;
40176;SDS011;31511;46.176;9.874;2022-09-09T08:54:15;1.52;;;0.60;;
40176;SDS011;31511;46.176;9.874;2022-09-09T08:56:44;0.82;;;0.45;;
40176;SDS011;31511;46.176;9.874;2022-09-09T08:59:11;1.23;;;0.28;;
40176;SDS011;31511;46.176;9.874;2022-09-09T09:04:21;0.43;;;0.30;;
40176;SDS011;31511;46.176;9.874;2022-09-09T09:09:39;0.30;;;0.30;;
40176;SDS011;31511;46.176;9.874;2022-09-09T09:12:15;0.93;;;0.63;;
40176;SDS011;31511;46.176;9.874;2022-09-09T09:14:43;0.80;;;0.47;;
40176;SDS011;31511;46.176;9.874;2022-09-09T09:17:16;0.70;;;0.20;;
40176;SDS011;31511;46.176;9.874;2022-09-09T09:19:46;0.45;;;0.30;;
40176;SDS011;31511;46.176;9.874;2022-09-09T09:22:25;0.55;;;0.30;;
40176;SDS011;31511;46.176;9.874;2022-09-09T09:25:12;1.92;;;0.32;;
40176;SDS011;31511;46.176;9.874;2022-09-09T09:28:01;2.38;;;0.43;;
40176;SDS011;31511;46.176;9.874;2022-09-09T09:31:13;2.05;;;0.40;;
40176;SDS011;31511;46.176;9.874;2022-09-09T09:33:23;0.52;;;0.45;;
40176;SDS011;31511;46.176;9.874;2022-09-09T09:35:54;1.45;;;0.40;;
40176;SDS011;31511;46.176;9.874;2022-09-09T09:38:21;1.92;;;1.02;;
40176;SDS011;31511;46.176;9.874;2022-09-09T09:40:50;0.40;;;0.30;;
40176;SDS011;31511;46.176;9.874;2022-09-09T09:43:22;0.50;;;0.30;;
40176;SDS011;31511;46.176;9.874;2022-09-09T09:45:52;3.35;;;0.85;;
40176;SDS011;31511;46.176;9.874;2022-09-09T09:48:19;2.33;;;0.40;;
40176;SDS011;31511;46.176;9.874;2022-09-09T09:50:52;4.03;;;0.50;;
40176;SDS011;31511;46.176;9.874;2022-09-09T09:53:24;0.95;;;0.20;;
40176;SDS011;31511;46.176;9.874;2022-09-09T09:58:21;0.35;;;0.30;;
40176;SDS011;31511;46.176;9.874;2022-09-09T10:00:50;2.22;;;0.32;;
40176;SDS011;31511;46.176;9.874;2022-09-09T10:05:53;0.30;;;0.30;;
40176;SDS011;31511;46.176;9.874;2022-09-09T10:08:22;1.17;;;0.32;;
40176;SDS011;31511;46.176;9.874;2022-09-09T10:11:09;0.93;;;0.30;;
40176;SDS011;31511;46.176;9.874;2022-09-09T10:14:00;0.57;;;0.30;;
40176;SDS011;31511;46.176;9.874;2022-09-09T10:39:58;1.40;;;0.30;;
40176;SDS011;31511;46.176;9.874;2022-09-09T10:42:29;0.95;;;0.20;;
40176;SDS011;31511;46.176;9.874;2022-09-09T10:50:43;0.68;;;0.20;;
40176;SDS011;31511;46.176;9.874;2022-09-09T10:53:34;0.10;;;0.10;;
40176;SDS011;31511;46.176;9.874;2022-09-09T10:56:03;0.17;;;0.10;;
40176;SDS011;31511;46.176;9.874;2022-09-09T10:58:36;0.00;;;0.00;;
40176;SDS011;31511;46.176;9.874;2022-09-09T11:01:12;1.85;;;0.10;;
40176;SDS011;31511;46.176;9.874;2022-09-09T11:03:41;0.20;;;0.10;;
40176;SDS011;31511;46.176;9.874;2022-09-09T11:06:15;0.13;;;0.10;;
40176;SDS011;31511;46.176;9.874;2022-09-09T11:08:43;0.10;;;0.10;;
40176;SDS011;31511;46.176;9.874;2022-09-09T11:11:13;0.63;;;0.30;;
40176;SDS011;31511;46.176;9.874;2022-09-09T11:18:46;0.30;;;0.08;;
40176;SDS011;31511;46.176;9.874;2022-09-09T11:21:23;1.40;;;0.20;;
40176;SDS011;31511;46.176;9.874;2022-09-09T11:23:57;0.47;;;0.10;;
40176;SDS011;31511;46.176;9.874;2022-09-09T11:26:29;0.20;;;0.10;;
40176;SDS011;31511;46.176;9.874;2022-09-09T11:31:38;0.13;;;0.00;;
40176;SDS011;31511;46.176;9.874;2022-09-09T11:34:24;0.10;;;0.00;;
40176;SDS011;31511;46.176;9.874;2022-09-09T11:36:58;0.00;;;0.00;;
40176;SDS011;31511;46.176;9.874;2022-09-09T11:44:54;0.00;;;0.00;;
40176;SDS011;31511;46.176;9.874;2022-09-09T11:47:24;0.10;;;0.00;;
40176;SDS011;31511;46.176;9.874;2022-09-09T11:50:07;0.00;;;0.00;;
40176;SDS011;31511;46.176;9.874;2022-09-09T11:52:38;0.00;;;0.00;;
40176;SDS011;31511;46.176;9.874;2022-09-09T11:55:40;0.68;;;0.10;;
40176;SDS011;31511;46.176;9.874;2022-09-09T12:05:53;0.75;;;0.10;;
40176;SDS011;31511;46.176;9.874;2022-09-09T12:08:24;0.10;;;0.10;;
40176;SDS011;31511;46.176;9.874;2022-09-09T12:10:56;0.20;;;0.10;;
40176;SDS011;31511;46.176;9.874;2022-09-09T12:13:24;0.35;;;0.00;;
40176;SDS011;31511;46.176;9.874;2022-09-09T12:15:57;0.10;;;0.10;;
40176;SDS011;31511;46.176;9.874;2022-09-09T12:18:32;0.17;;;0.10;;
40176;SDS011;31511;46.176;9.874;2022-09-09T12:21:02;0.10;;;0.05;;
40176;SDS011;31511;46.176;9.874;2022-09-09T12:23:32;0.55;;;0.10;;
40176;SDS011;31511;46.176;9.874;2022-09-09T12:33:47;0.25;;;0.10;;
40176;SDS011;31511;46.176;9.874;2022-09-09T12:36:15;0.28;;;0.10;;
40176;SDS011;31511;46.176;9.874;2022-09-09T12:38:43;0.20;;;0.05;;
40176;SDS011;31511;46.176;9.874;2022-09-09T12:41:24;0.75;;;0.10;;
40176;SDS011;31511;46.176;9.874;2022-09-09T12:44:06;0.57;;;0.10;;
40176;SDS011;31511;46.176;9.874;2022-09-09T12:46:36;0.37;;;0.10;;
40176;SDS011;31511;46.176;9.874;2022-09-09T12:49:04;0.13;;;0.10;;
40176;SDS011;31511;46.176;9.874;2022-09-09T12:51:31;1.17;;;0.10;;
40176;SDS011;31511;46.176;9.874;2022-09-09T12:53:58;0.10;;;0.10;;
40176;SDS011;31511;46.176;9.874;2022-09-09T12:56:27;0.65;;;0.38;;
40176;SDS011;31511;46.176;9.874;2022-09-09T12:58:57;2.28;;;0.17;;
40176;SDS011;31511;46.176;9.874;2022-09-09T13:01:27;0.32;;;0.20;;
40176;SDS011;31511;46.176;9.874;2022-09-09T13:03:54;0.40;;;0.10;;
40176;SDS011;31511;46.176;9.874;2022-09-09T13:06:22;1.33;;;0.32;;
40176;SDS011;31511;46.176;9.874;2022-09-09T13:08:51;0.00;;;0.00;;
40176;SDS011;31511;46.176;9.874;2022-09-09T13:11:20;0.03;;;0.03;;
40176;SDS011;31511;46.176;9.874;2022-09-09T13:13:50;0.15;;;0.15;;
40176;SDS011;31511;46.176;9.874;2022-09-09T13:16:38;0.22;;;0.20;;
40176;SDS011;31511;46.176;9.874;2022-09-09T13:19:07;0.47;;;0.17;;
40176;SDS011;31511;46.176;9.874;2022-09-09T13:21:37;0.20;;;0.10;;
40176;SDS011;31511;46.176;9.874;2022-09-09T13:24:04;0.20;;;0.10;;
40176;SDS011;31511;46.176;9.874;2022-09-09T13:26:33;0.50;;;0.10;;
40176;SDS011;31511;46.176;9.874;2022-09-09T13:29:16;0.57;;;0.10;;
40176;SDS011;31511;46.176;9.874;2022-09-09T13:31:43;1.55;;;0.10;;
40176;SDS011;31511;46.176;9.874;2022-09-09T13:34:52;0.75;;;0.20;;
40176;SDS011;31511;46.176;9.874;2022-09-09T13:36:59;0.22;;;0.10;;
40176;SDS011;31511;46.176;9.874;2022-09-09T13:39:34;0.10;;;0.10;;
40176;SDS011;31511;46.176;9.874;2022-09-09T13:42:01;0.70;;;0.20;;
40176;SDS011;31511;46.176;9.874;2022-09-09T13:44:30;1.08;;;0.10;;
40176;SDS011;31511;46.176;9.874;2022-09-09T13:47:19;2.13;;;0.20;;
40176;SDS011;31511;46.176;9.874;2022-09-09T13:49:48;0.40;;;0.20;;
40176;SDS011;31511;46.176;9.874;2022-09-09T13:52:15;0.20;;;0.20;;
40176;SDS011;31511;46.176;9.874;2022-09-09T13:54:48;0.80;;;0.10;;
40176;SDS011;31511;46.176;9.874;2022-09-09T13:57:19;0.35;;;0.20;;
40176;SDS011;31511;46.176;9.874;2022-09-09T14:02:13;0.30;;;0.20;;
40176;SDS011;31511;46.176;9.874;2022-09-09T14:04:40;0.40;;;0.30;;
40176;SDS011;31511;46.176;9.874;2022-09-09T14:07:09;0.30;;;0.10;;
40176;SDS011;31511;46.176;9.874;2022-09-09T14:09:37;0.88;;;0.40;;
40176;SDS011;31511;46.176;9.874;2022-09-09T14:12:03;1.55;;;0.52;;
40176;SDS011;31511;46.176;9.874;2022-09-09T14:14:30;3.33;;;0.38;;
40176;SDS011;31511;46.176;9.874;2022-09-09T14:16:56;1.08;;;0.40;;
40176;SDS011;31511;46.176;9.874;2022-09-09T14:19:24;0.70;;;0.47;;
40176;SDS011;31511;46.176;9.874;2022-09-09T14:21:52;0.63;;;0.30;;
40176;SDS011;31511;46.176;9.874;2022-09-09T14:24:20;0.30;;;0.20;;
40176;SDS011;31511;46.176;9.874;2022-09-09T14:26:48;0.57;;;0.28;;
40176;SDS011;31511;46.176;9.874;2022-09-09T14:29:15;0.82;;;0.30;;
40176;SDS011;31511;46.176;9.874;2022-09-09T14:31:41;1.92;;;0.40;;
40176;SDS011;31511;46.176;9.874;2022-09-09T14:34:07;0.77;;;0.50;;
40176;SDS011;31511;46.176;9.874;2022-09-09T14:36:36;0.68;;;0.40;;
40176;SDS011;31511;46.176;9.874;2022-09-09T14:39:02;2.75;;;0.40;;
40176;SDS011;31511;46.176;9.874;2022-09-09T14:41:30;0.85;;;0.32;;
40176;SDS011;31511;46.176;9.874;2022-09-09T14:43:56;3.83;;;0.55;;
40176;SDS011;31511;46.176;9.874;2022-09-09T14:46:23;0.73;;;0.40;;
40176;SDS011;31511;46.176;9.874;2022-09-09T14:48:52;1.25;;;0.50;;
40176;SDS011;31511;46.176;9.874;2022-09-09T14:51:19;0.68;;;0.40;;
40176;SDS011;31511;46.176;9.874;2022-09-09T14:53:48;2.08;;;0.40;;
40176;SDS011;31511;46.176;9.874;2022-09-09T14:56:16;0.88;;;0.50;;
40176;SDS011;31511;46.176;9.874;2022-09-09T14:58:43;0.70;;;0.43;;
40176;SDS011;31511;46.176;9.874;2022-09-09T15:01:15;0.90;;;0.45;;
40176;SDS011;31511;46.176;9.874;2022-09-09T15:03:43;1.33;;;0.55;;
40176;SDS011;31511;46.176;9.874;2022-09-09T15:06:14;0.30;;;0.30;;
40176;SDS011;31511;46.176;9.874;2022-09-09T15:08:42;1.17;;;0.60;;
40176;SDS011;31511;46.176;9.874;2022-09-09T15:11:09;0.77;;;0.50;;
40176;SDS011;31511;46.176;9.874;2022-09-09T15:13:37;3.58;;;0.40;;
40176;SDS011;31511;46.176;9.874;2022-09-09T15:16:07;1.75;;;0.45;;
40176;SDS011;31511;46.176;9.874;2022-09-09T15:18:35;1.10;;;0.50;;
40176;SDS011;31511;46.176;9.874;2022-09-09T15:21:02;0.95;;;0.65;;
40176;SDS011;31511;46.176;9.874;2022-09-09T15:23:34;0.70;;;0.47;;
40176;SDS011;31511;46.176;9.874;2022-09-09T15:26:00;1.38;;;0.47;;
40176;SDS011;31511;46.176;9.874;2022-09-09T15:28:28;2.08;;;0.63;;
40176;SDS011;31511;46.176;9.874;2022-09-09T15:30:57;1.23;;;0.57;;
40176;SDS011;31511;46.176;9.874;2022-09-09T15:33:26;0.60;;;0.55;;
40176;SDS011;31511;46.176;9.874;2022-09-09T15:35:55;2.95;;;0.60;;
40176;SDS011;31511;46.176;9.874;2022-09-09T15:38:22;1.48;;;0.55;;
40176;SDS011;31511;46.176;9.874;2022-09-09T15:40:54;1.00;;;0.50;;
40176;SDS011;31511;46.176;9.874;2022-09-09T15:43:21;1.35;;;0.77;;
40176;SDS011;31511;46.176;9.874;2022-09-09T15:45:52;3.20;;;0.60;;
40176;SDS011;31511;46.176;9.874;2022-09-09T15:48:20;0.55;;;0.50;;
40176;SDS011;31511;46.176;9.874;2022-09-09T15:51:00;3.17;;;0.82;;
40176;SDS011;31511;46.176;9.874;2022-09-09T15:53:29;1.55;;;0.50;;
40176;SDS011;31511;46.176;9.874;2022-09-09T15:55:59;2.42;;;0.60;;
40176;SDS011;31511;46.176;9.874;2022-09-09T15:58:29;1.60;;;0.63;;
40176;SDS011;31511;46.176;9.874;2022-09-09T16:01:06;2.53;;;0.47;;
40176;SDS011;31511;46.176;9.874;2022-09-09T16:03:33;1.48;;;0.63;;
40176;SDS011;31511;46.176;9.874;2022-09-09T16:06:01;4.97;;;0.75;;
40176;SDS011;31511;46.176;9.874;2022-09-09T16:08:37;0.70;;;0.57;;
40176;SDS011;31511;46.176;9.874;2022-09-09T16:11:04;1.48;;;0.50;;
40176;SDS011;31511;46.176;9.874;2022-09-09T16:13:36;3.13;;;0.50;;
40176;SDS011;31511;46.176;9.874;2022-09-09T16:16:05;1.10;;;0.50;;
40176;SDS011;31511;46.176;9.874;2022-09-09T16:18:43;1.63;;;0.47;;
40176;SDS011;31511;46.176;9.874;2022-09-09T16:21:15;1.25;;;0.57;;
40176;SDS011;31511;46.176;9.874;2022-09-09T16:23:43;0.85;;;0.50;;
40176;SDS011;31511;46.176;9.874;2022-09-09T16:26:12;2.67;;;1.35;;
40176;SDS011;31511;46.176;9.874;2022-09-09T16:28:40;3.00;;;0.90;;
40176;SDS011;31511;46.176;9.874;2022-09-09T16:31:14;2.05;;;0.57;;
40176;SDS011;31511;46.176;9.874;2022-09-09T16:33:41;1.40;;;0.47;;
40176;SDS011;31511;46.176;9.874;2022-09-09T16:36:18;1.92;;;0.55;;
40176;SDS011;31511;46.176;9.874;2022-09-09T16:38:46;4.25;;;0.95;;
40176;SDS011;31511;46.176;9.874;2022-09-09T16:41:13;2.78;;;1.13;;
40176;SDS011;31511;46.176;9.874;2022-09-09T16:43:41;1.88;;;0.60;;
40176;SDS011;31511;46.176;9.874;2022-09-09T16:46:18;2.05;;;0.88;;
40176;SDS011;31511;46.176;9.874;2022-09-09T16:48:47;1.52;;;1.02;;
40176;SDS011;31511;46.176;9.874;2022-09-09T16:51:15;0.75;;;0.52;;
40176;SDS011;31511;46.176;9.874;2022-09-09T16:53:42;1.00;;;0.65;;
40176;SDS011;31511;46.176;9.874;2022-09-09T16:56:10;2.00;;;0.85;;
40176;SDS011;31511;46.176;9.874;2022-09-09T16:58:36;4.00;;;0.88;;
40176;SDS011;31511;46.176;9.874;2022-09-09T17:01:03;5.35;;;0.60;;
40176;SDS011;31511;46.176;9.874;2022-09-09T17:03:30;3.05;;;0.88;;
40176;SDS011;31511;46.176;9.874;2022-09-09T17:05:57;1.52;;;0.88;;